sensor_id;sensor_type;location;lat;lon;timestamp;pressure;altitude;pressure_sealevel;temperature;humidity
76337;BME280;65157;50.082;18.178;2023-11-19T00:01:25;99833.93;;;-0.51;86.08
76337;BME280;65157;50.082;18.178;2023-11-19T00:03:52;99826.84;;;-0.51;85.99
76337;BME280;65157;50.082;18.178;2023-11-19T00:06:20;99825.64;;;-0.50;85.88
76337;BME280;65157;50.082;18.178;2023-11-19T00:08:46;99823.92;;;-0.49;85.93
76337;BME280;65157;50.082;18.178;2023-11-19T00:11:13;99828.45;;;-0.47;85.93
76337;BME280;65157;50.082;18.178;2023-11-19T00:13:40;99835.75;;;-0.45;86.03
76337;BME280;65157;50.082;18.178;2023-11-19T00:16:07;99838.02;;;-0.45;86.01
76337;BME280;65157;50.082;18.178;2023-11-19T00:18:34;99835.23;;;-0.43;85.91
76337;BME280;65157;50.082;18.178;2023-11-19T00:21:00;99832.82;;;-0.43;85.94
76337;BME280;65157;50.082;18.178;2023-11-19T00:23:27;99824.33;;;-0.43;85.84
76337;BME280;65157;50.082;18.178;2023-11-19T00:25:54;99830.41;;;-0.42;85.76
76337;BME280;65157;50.082;18.178;2023-11-19T00:28:21;99834.05;;;-0.42;85.68
76337;BME280;65157;50.082;18.178;2023-11-19T00:30:47;99845.65;;;-0.43;85.68
76337;BME280;65157;50.082;18.178;2023-11-19T00:33:14;99848.95;;;-0.44;85.60
76337;BME280;65157;50.082;18.178;2023-11-19T00:35:40;99847.70;;;-0.46;85.74
76337;BME280;65157;50.082;18.178;2023-11-19T00:38:07;99841.77;;;-0.49;85.92
76337;BME280;65157;50.082;18.178;2023-11-19T00:40:34;99833.77;;;-0.51;86.01
76337;BME280;65157;50.082;18.178;2023-11-19T00:43:01;99825.95;;;-0.53;86.01
76337;BME280;65157;50.082;18.178;2023-11-19T00:45:27;99820.70;;;-0.57;85.71
76337;BME280;65157;50.082;18.178;2023-11-19T00:47:54;99815.98;;;-0.62;85.91
76337;BME280;65157;50.082;18.178;2023-11-19T00:50:21;99815.23;;;-0.66;85.96
76337;BME280;65157;50.082;18.178;2023-11-19T00:52:47;99817.96;;;-0.69;86.32
76337;BME280;65157;50.082;18.178;2023-11-19T00:55:14;99813.27;;;-0.71;86.06
76337;BME280;65157;50.082;18.178;2023-11-19T00:57:40;99815.85;;;-0.72;86.14
76337;BME280;65157;50.082;18.178;2023-11-19T01:00:08;99815.98;;;-0.75;86.36
76337;BME280;65157;50.082;18.178;2023-11-19T01:02:34;99809.71;;;-0.78;86.45
76337;BME280;65157;50.082;18.178;2023-11-19T01:05:01;99799.79;;;-0.81;86.56
76337;BME280;65157;50.082;18.178;2023-11-19T01:07:27;99794.91;;;-0.83;86.68
76337;BME280;65157;50.082;18.178;2023-11-19T01:09:54;99786.41;;;-0.84;86.70
76337;BME280;65157;50.082;18.178;2023-11-19T01:12:21;99786.44;;;-0.82;86.66
76337;BME280;65157;50.082;18.178;2023-11-19T01:14:47;99786.66;;;-0.78;86.78
76337;BME280;65157;50.082;18.178;2023-11-19T01:17:14;99780.34;;;-0.71;86.62
76337;BME280;65157;50.082;18.178;2023-11-19T01:19:40;99767.27;;;-0.62;86.85
76337;BME280;65157;50.082;18.178;2023-11-19T01:22:07;99758.72;;;-0.49;86.62
76337;BME280;65157;50.082;18.178;2023-11-19T01:24:34;99754.00;;;-0.35;86.66
76337;BME280;65157;50.082;18.178;2023-11-19T01:27:00;99748.94;;;-0.20;86.36
76337;BME280;65157;50.082;18.178;2023-11-19T01:29:27;99749.06;;;-0.06;86.14
76337;BME280;65157;50.082;18.178;2023-11-19T01:31:54;99748.97;;;0.05;86.13
76337;BME280;65157;50.082;18.178;2023-11-19T01:34:20;99740.88;;;0.11;85.93
76337;BME280;65157;50.082;18.178;2023-11-19T01:36:47;99736.70;;;0.11;85.69
76337;BME280;65157;50.082;18.178;2023-11-19T01:39:14;99736.88;;;0.09;85.97
76337;BME280;65157;50.082;18.178;2023-11-19T01:41:41;99726.30;;;0.13;85.93
76337;BME280;65157;50.082;18.178;2023-11-19T01:44:10;99712.60;;;0.14;85.94
76337;BME280;65157;50.082;18.178;2023-11-19T01:46:36;99707.38;;;0.11;85.84
76337;BME280;65157;50.082;18.178;2023-11-19T01:49:04;99701.27;;;0.05;86.18
76337;BME280;65157;50.082;18.178;2023-11-19T01:51:31;99692.23;;;0.03;86.04
76337;BME280;65157;50.082;18.178;2023-11-19T01:53:58;99676.59;;;0.00;86.21
76337;BME280;65157;50.082;18.178;2023-11-19T01:56:26;99667.54;;;-0.03;86.26
76337;BME280;65157;50.082;18.178;2023-11-19T01:58:54;99662.15;;;-0.06;86.37
76337;BME280;65157;50.082;18.178;2023-11-19T02:01:21;99654.70;;;-0.05;86.70
76337;BME280;65157;50.082;18.178;2023-11-19T02:03:48;99650.20;;;-0.01;86.91
76337;BME280;65157;50.082;18.178;2023-11-19T02:06:15;99656.84;;;0.05;86.82
76337;BME280;65157;50.082;18.178;2023-11-19T02:08:42;99652.23;;;0.18;86.99
76337;BME280;65157;50.082;18.178;2023-11-19T02:11:09;99647.77;;;0.29;86.54
76337;BME280;65157;50.082;18.178;2023-11-19T02:13:37;99648.85;;;0.35;86.34
76337;BME280;65157;50.082;18.178;2023-11-19T02:16:04;99642.96;;;0.37;86.24
76337;BME280;65157;50.082;18.178;2023-11-19T02:18:31;99635.86;;;0.40;86.24
76337;BME280;65157;50.082;18.178;2023-11-19T02:20:58;99628.22;;;0.40;86.30
76337;BME280;65157;50.082;18.178;2023-11-19T02:23:27;99619.36;;;0.40;86.20
76337;BME280;65157;50.082;18.178;2023-11-19T02:26:05;99617.09;;;0.41;85.83
76337;BME280;65157;50.082;18.178;2023-11-19T02:28:36;99608.59;;;0.39;85.87
76337;BME280;65157;50.082;18.178;2023-11-19T02:31:03;99597.98;;;0.37;85.83
76337;BME280;65157;50.082;18.178;2023-11-19T02:33:30;99588.77;;;0.33;85.86
76337;BME280;65157;50.082;18.178;2023-11-19T02:35:57;99580.60;;;0.30;85.93
76337;BME280;65157;50.082;18.178;2023-11-19T02:38:25;99570.70;;;0.30;85.66
76337;BME280;65157;50.082;18.178;2023-11-19T02:40:52;99570.19;;;0.32;85.69
76337;BME280;65157;50.082;18.178;2023-11-19T02:43:19;99577.85;;;0.36;85.76
76337;BME280;65157;50.082;18.178;2023-11-19T02:45:46;99572.65;;;0.39;85.73
76337;BME280;65157;50.082;18.178;2023-11-19T02:48:12;99565.02;;;0.43;85.80
76337;BME280;65157;50.082;18.178;2023-11-19T02:50:39;99554.64;;;0.46;85.68
76337;BME280;65157;50.082;18.178;2023-11-19T02:53:06;99557.40;;;0.45;85.71
76337;BME280;65157;50.082;18.178;2023-11-19T02:55:32;99561.55;;;0.42;85.56
76337;BME280;65157;50.082;18.178;2023-11-19T02:57:59;99559.64;;;0.40;85.56
76337;BME280;65157;50.082;18.178;2023-11-19T03:00:25;99552.14;;;0.37;85.51
76337;BME280;65157;50.082;18.178;2023-11-19T03:02:52;99542.09;;;0.34;85.63
76337;BME280;65157;50.082;18.178;2023-11-19T03:05:21;99542.06;;;0.29;85.50
76337;BME280;65157;50.082;18.178;2023-11-19T03:07:47;99537.35;;;0.20;85.76
76337;BME280;65157;50.082;18.178;2023-11-19T03:10:14;99529.69;;;0.16;86.10
76337;BME280;65157;50.082;18.178;2023-11-19T03:12:42;99517.19;;;0.17;86.52
76337;BME280;65157;50.082;18.178;2023-11-19T03:15:09;99510.06;;;0.14;86.18
76337;BME280;65157;50.082;18.178;2023-11-19T03:17:38;99506.40;;;0.04;86.40
76337;BME280;65157;50.082;18.178;2023-11-19T03:20:06;99510.87;;;-0.06;86.99
76337;BME280;65157;50.082;18.178;2023-11-19T03:22:33;99516.21;;;-0.12;87.20
76337;BME280;65157;50.082;18.178;2023-11-19T03:25:00;99507.02;;;-0.13;87.23
76337;BME280;65157;50.082;18.178;2023-11-19T03:27:27;99506.31;;;-0.13;87.38
76337;BME280;65157;50.082;18.178;2023-11-19T03:29:54;99507.35;;;-0.15;87.45
76337;BME280;65157;50.082;18.178;2023-11-19T03:32:21;99507.88;;;-0.13;87.75
76337;BME280;65157;50.082;18.178;2023-11-19T03:34:47;99500.79;;;-0.08;87.96
76337;BME280;65157;50.082;18.178;2023-11-19T03:37:14;99489.52;;;-0.07;87.91
76337;BME280;65157;50.082;18.178;2023-11-19T03:39:40;99477.21;;;-0.08;88.12
76337;BME280;65157;50.082;18.178;2023-11-19T03:42:07;99474.27;;;-0.04;88.26
76337;BME280;65157;50.082;18.178;2023-11-19T03:44:34;99477.56;;;-0.02;88.38
76337;BME280;65157;50.082;18.178;2023-11-19T03:47:00;99479.14;;;0.04;88.30
76337;BME280;65157;50.082;18.178;2023-11-19T03:49:27;99475.17;;;0.10;88.27
76337;BME280;65157;50.082;18.178;2023-11-19T03:51:54;99467.04;;;0.16;88.28
76337;BME280;65157;50.082;18.178;2023-11-19T03:54:20;99462.38;;;0.21;87.99
76337;BME280;65157;50.082;18.178;2023-11-19T03:56:47;99463.77;;;0.29;87.64
76337;BME280;65157;50.082;18.178;2023-11-19T03:59:14;99464.65;;;0.38;87.54
76337;BME280;65157;50.082;18.178;2023-11-19T04:01:41;99466.75;;;0.45;87.36
76337;BME280;65157;50.082;18.178;2023-11-19T04:04:08;99469.71;;;0.53;87.13
76337;BME280;65157;50.082;18.178;2023-11-19T04:06:34;99472.16;;;0.60;87.00
76337;BME280;65157;50.082;18.178;2023-11-19T04:09:01;99480.67;;;0.66;86.96
76337;BME280;65157;50.082;18.178;2023-11-19T04:11:27;99491.29;;;0.71;86.59
76337;BME280;65157;50.082;18.178;2023-11-19T04:13:54;99494.40;;;0.74;86.58
76337;BME280;65157;50.082;18.178;2023-11-19T04:16:26;99493.89;;;0.77;86.27
76337;BME280;65157;50.082;18.178;2023-11-19T04:18:53;99489.72;;;0.76;86.09
76337;BME280;65157;50.082;18.178;2023-11-19T04:21:19;99476.52;;;0.69;86.10
76337;BME280;65157;50.082;18.178;2023-11-19T04:23:46;99456.36;;;0.65;86.46
76337;BME280;65157;50.082;18.178;2023-11-19T04:26:13;99438.83;;;0.66;86.35
76337;BME280;65157;50.082;18.178;2023-11-19T04:28:39;99436.23;;;0.66;86.39
76337;BME280;65157;50.082;18.178;2023-11-19T04:31:06;99427.19;;;0.66;86.14
76337;BME280;65157;50.082;18.178;2023-11-19T04:33:32;99416.93;;;0.62;85.96
76337;BME280;65157;50.082;18.178;2023-11-19T04:35:59;99406.69;;;0.62;85.90
76337;BME280;65157;50.082;18.178;2023-11-19T04:38:26;99404.09;;;0.64;85.89
76337;BME280;65157;50.082;18.178;2023-11-19T04:40:53;99403.04;;;0.67;85.73
76337;BME280;65157;50.082;18.178;2023-11-19T04:43:19;99397.83;;;0.72;85.96
76337;BME280;65157;50.082;18.178;2023-11-19T04:45:46;99393.66;;;0.79;85.63
76337;BME280;65157;50.082;18.178;2023-11-19T04:48:13;99389.48;;;0.83;85.62
76337;BME280;65157;50.082;18.178;2023-11-19T04:50:39;99385.30;;;0.86;85.46
76337;BME280;65157;50.082;18.178;2023-11-19T04:53:06;99384.61;;;0.87;85.29
76337;BME280;65157;50.082;18.178;2023-11-19T04:55:33;99380.61;;;0.87;85.40
76337;BME280;65157;50.082;18.178;2023-11-19T04:58:00;99379.41;;;0.86;85.11
76337;BME280;65157;50.082;18.178;2023-11-19T05:00:27;99380.79;;;0.84;85.23
76337;BME280;65157;50.082;18.178;2023-11-19T05:02:53;99381.14;;;0.84;85.50
76337;BME280;65157;50.082;18.178;2023-11-19T05:05:20;99378.19;;;0.87;85.56
76337;BME280;65157;50.082;18.178;2023-11-19T05:07:47;99363.77;;;0.92;85.55
76337;BME280;65157;50.082;18.178;2023-11-19T05:10:13;99351.75;;;0.97;85.29
76337;BME280;65157;50.082;18.178;2023-11-19T05:12:40;99345.16;;;0.98;85.26
76337;BME280;65157;50.082;18.178;2023-11-19T05:15:07;99342.36;;;1.00;85.09
76337;BME280;65157;50.082;18.178;2023-11-19T05:17:33;99342.19;;;0.98;85.02
76337;BME280;65157;50.082;18.178;2023-11-19T05:20:00;99344.45;;;0.97;85.35
76337;BME280;65157;50.082;18.178;2023-11-19T05:22:27;99346.02;;;0.97;85.06
76337;BME280;65157;50.082;18.178;2023-11-19T05:24:54;99343.92;;;0.99;85.01
76337;BME280;65157;50.082;18.178;2023-11-19T05:27:20;99336.29;;;1.01;84.96
76337;BME280;65157;50.082;18.178;2023-11-19T05:29:47;99341.48;;;1.03;84.90
76337;BME280;65157;50.082;18.178;2023-11-19T05:32:13;99354.67;;;1.05;84.97
76337;BME280;65157;50.082;18.178;2023-11-19T05:34:40;99361.98;;;1.08;84.65
76337;BME280;65157;50.082;18.178;2023-11-19T05:37:06;99367.38;;;1.05;84.74
76337;BME280;65157;50.082;18.178;2023-11-19T05:39:33;99362.35;;;1.00;84.76
76337;BME280;65157;50.082;18.178;2023-11-19T05:42:00;99352.27;;;0.96;84.74
76337;BME280;65157;50.082;18.178;2023-11-19T05:44:26;99337.69;;;0.90;84.79
76337;BME280;65157;50.082;18.178;2023-11-19T05:46:53;99339.62;;;0.85;84.84
76337;BME280;65157;50.082;18.178;2023-11-19T05:49:20;99344.14;;;0.80;85.02
76337;BME280;65157;50.082;18.178;2023-11-19T05:51:46;99337.36;;;0.76;84.99
76337;BME280;65157;50.082;18.178;2023-11-19T05:54:13;99326.08;;;0.74;85.24
76337;BME280;65157;50.082;18.178;2023-11-19T05:56:39;99320.02;;;0.72;85.30
76337;BME280;65157;50.082;18.178;2023-11-19T05:59:06;99307.34;;;0.70;85.43
76337;BME280;65157;50.082;18.178;2023-11-19T06:01:35;99295.19;;;0.66;85.50
76337;BME280;65157;50.082;18.178;2023-11-19T06:04:02;99286.85;;;0.64;85.54
76337;BME280;65157;50.082;18.178;2023-11-19T06:06:29;99289.64;;;0.61;85.68
76337;BME280;65157;50.082;18.178;2023-11-19T06:08:56;99280.96;;;0.59;85.53
76337;BME280;65157;50.082;18.178;2023-11-19T06:11:23;99272.63;;;0.57;85.76
76337;BME280;65157;50.082;18.178;2023-11-19T06:13:53;99268.98;;;0.55;85.77
76337;BME280;65157;50.082;18.178;2023-11-19T06:16:19;99276.80;;;0.54;85.89
76337;BME280;65157;50.082;18.178;2023-11-19T06:18:46;99281.48;;;0.52;86.03
76337;BME280;65157;50.082;18.178;2023-11-19T06:21:13;99274.02;;;0.51;86.24
76337;BME280;65157;50.082;18.178;2023-11-19T06:23:39;99264.99;;;0.51;86.27
76337;BME280;65157;50.082;18.178;2023-11-19T06:26:06;99259.79;;;0.50;86.30
76337;BME280;65157;50.082;18.178;2023-11-19T06:28:33;99260.14;;;0.51;86.37
76337;BME280;65157;50.082;18.178;2023-11-19T06:30:59;99260.14;;;0.51;86.33
76337;BME280;65157;50.082;18.178;2023-11-19T06:33:26;99247.11;;;0.50;86.44
76337;BME280;65157;50.082;18.178;2023-11-19T06:35:53;99238.26;;;0.51;86.42
76337;BME280;65157;50.082;18.178;2023-11-19T06:38:20;99252.66;;;0.52;86.69
76337;BME280;65157;50.082;18.178;2023-11-19T06:40:46;99263.60;;;0.52;86.40
76337;BME280;65157;50.082;18.178;2023-11-19T06:43:13;99261.70;;;0.51;86.55
76337;BME280;65157;50.082;18.178;2023-11-19T06:45:40;99261.69;;;0.52;86.81
76337;BME280;65157;50.082;18.178;2023-11-19T06:48:07;99260.30;;;0.52;86.78
76337;BME280;65157;50.082;18.178;2023-11-19T06:50:34;99256.14;;;0.54;86.70
76337;BME280;65157;50.082;18.178;2023-11-19T06:53:01;99237.73;;;0.55;86.75
76337;BME280;65157;50.082;18.178;2023-11-19T06:55:28;99229.73;;;0.56;86.71
76337;BME280;65157;50.082;18.178;2023-11-19T06:57:55;99234.25;;;0.58;86.82
76337;BME280;65157;50.082;18.178;2023-11-19T07:00:22;99247.44;;;0.58;86.98
76337;BME280;65157;50.082;18.178;2023-11-19T07:02:48;99249.35;;;0.59;86.78
76337;BME280;65157;50.082;18.178;2023-11-19T07:05:15;99239.95;;;0.62;86.86
76337;BME280;65157;50.082;18.178;2023-11-19T07:07:42;99227.63;;;0.62;86.86
76337;BME280;65157;50.082;18.178;2023-11-19T07:10:08;99225.54;;;0.64;86.68
76337;BME280;65157;50.082;18.178;2023-11-19T07:12:36;99224.33;;;0.64;86.71
76337;BME280;65157;50.082;18.178;2023-11-19T07:15:07;99234.57;;;0.66;86.93
76337;BME280;65157;50.082;18.178;2023-11-19T07:17:34;99239.61;;;0.66;86.77
76337;BME280;65157;50.082;18.178;2023-11-19T07:20:01;99240.98;;;0.69;86.78
76337;BME280;65157;50.082;18.178;2023-11-19T07:22:28;99229.69;;;0.70;86.71
76337;BME280;65157;50.082;18.178;2023-11-19T07:24:54;99226.05;;;0.72;86.81
76337;BME280;65157;50.082;18.178;2023-11-19T07:27:21;99204.83;;;0.74;86.88
76337;BME280;65157;50.082;18.178;2023-11-19T07:29:48;99190.41;;;0.76;86.76
76337;BME280;65157;50.082;18.178;2023-11-19T07:32:14;99181.38;;;0.78;86.76
76337;BME280;65157;50.082;18.178;2023-11-19T07:34:41;99177.02;;;0.79;86.73
76337;BME280;65157;50.082;18.178;2023-11-19T07:37:08;99175.29;;;0.80;86.67
76337;BME280;65157;50.082;18.178;2023-11-19T07:39:34;99184.48;;;0.82;86.79
76337;BME280;65157;50.082;18.178;2023-11-19T07:42:01;99177.87;;;0.86;86.71
76337;BME280;65157;50.082;18.178;2023-11-19T07:44:29;99166.39;;;0.86;86.70
76337;BME280;65157;50.082;18.178;2023-11-19T07:46:55;99165.86;;;0.91;86.64
76337;BME280;65157;50.082;18.178;2023-11-19T07:49:22;99163.75;;;0.94;86.83
76337;BME280;65157;50.082;18.178;2023-11-19T07:51:49;99164.79;;;0.95;86.86
76337;BME280;65157;50.082;18.178;2023-11-19T07:54:16;99159.89;;;1.01;86.94
76337;BME280;65157;50.082;18.178;2023-11-19T07:56:44;99163.69;;;1.04;86.86
76337;BME280;65157;50.082;18.178;2023-11-19T07:59:11;99161.08;;;1.08;86.68
76337;BME280;65157;50.082;18.178;2023-11-19T08:01:38;99147.49;;;1.11;86.61
76337;BME280;65157;50.082;18.178;2023-11-19T08:04:07;99145.03;;;1.16;86.16
76337;BME280;65157;50.082;18.178;2023-11-19T08:06:35;99150.73;;;1.19;86.08
76337;BME280;65157;50.082;18.178;2023-11-19T08:09:02;99151.07;;;1.24;85.89
76337;BME280;65157;50.082;18.178;2023-11-19T08:11:29;99147.23;;;1.25;85.72
76337;BME280;65157;50.082;18.178;2023-11-19T08:13:55;99146.51;;;1.28;85.57
76337;BME280;65157;50.082;18.178;2023-11-19T08:16:22;99145.81;;;1.30;85.85
76337;BME280;65157;50.082;18.178;2023-11-19T08:18:49;99143.36;;;1.32;85.89
76337;BME280;65157;50.082;18.178;2023-11-19T08:21:15;99141.95;;;1.33;85.68
76337;BME280;65157;50.082;18.178;2023-11-19T08:23:42;99147.16;;;1.35;85.58
76337;BME280;65157;50.082;18.178;2023-11-19T08:26:09;99155.34;;;1.36;85.59
76337;BME280;65157;50.082;18.178;2023-11-19T08:28:37;99156.53;;;1.37;85.52
76337;BME280;65157;50.082;18.178;2023-11-19T08:31:04;99154.79;;;1.38;85.47
76337;BME280;65157;50.082;18.178;2023-11-19T08:33:31;99155.81;;;1.41;85.46
76337;BME280;65157;50.082;18.178;2023-11-19T08:35:58;99161.19;;;1.42;85.48
76337;BME280;65157;50.082;18.178;2023-11-19T08:38:25;99153.02;;;1.44;85.45
76337;BME280;65157;50.082;18.178;2023-11-19T08:40:52;99136.48;;;1.45;85.47
76337;BME280;65157;50.082;18.178;2023-11-19T08:43:19;99125.86;;;1.47;85.48
76337;BME280;65157;50.082;18.178;2023-11-19T08:45:45;99112.65;;;1.46;85.53
76337;BME280;65157;50.082;18.178;2023-11-19T08:48:13;99104.78;;;1.52;85.27
76337;BME280;65157;50.082;18.178;2023-11-19T08:50:39;99103.18;;;1.55;85.38
76337;BME280;65157;50.082;18.178;2023-11-19T08:53:06;99107.14;;;1.59;85.52
76337;BME280;65157;50.082;18.178;2023-11-19T08:55:34;99102.73;;;1.65;85.58
76337;BME280;65157;50.082;18.178;2023-11-19T08:58:01;99098.70;;;1.70;85.50
76337;BME280;65157;50.082;18.178;2023-11-19T09:00:28;99098.64;;;1.75;85.22
76337;BME280;65157;50.082;18.178;2023-11-19T09:02:56;99108.16;;;1.82;85.94
76337;BME280;65157;50.082;18.178;2023-11-19T09:05:23;99110.55;;;1.87;85.48
76337;BME280;65157;50.082;18.178;2023-11-19T09:07:50;99106.33;;;1.92;85.36
76337;BME280;65157;50.082;18.178;2023-11-19T09:10:17;99102.78;;;1.97;85.14
76337;BME280;65157;50.082;18.178;2023-11-19T09:12:44;99087.95;;;2.02;84.95
76337;BME280;65157;50.082;18.178;2023-11-19T09:15:10;99081.28;;;2.06;84.94
76337;BME280;65157;50.082;18.178;2023-11-19T09:17:37;99066.25;;;2.11;85.34
76337;BME280;65157;50.082;18.178;2023-11-19T09:20:04;99056.44;;;2.16;85.02
76337;BME280;65157;50.082;18.178;2023-11-19T09:22:35;99058.31;;;2.21;85.24
76337;BME280;65157;50.082;18.178;2023-11-19T09:25:01;99055.11;;;2.26;85.07
76337;BME280;65157;50.082;18.178;2023-11-19T09:27:28;99047.40;;;2.30;84.36
76337;BME280;65157;50.082;18.178;2023-11-19T09:29:54;99042.83;;;2.33;84.54
76337;BME280;65157;50.082;18.178;2023-11-19T09:32:21;99036.86;;;2.37;84.54
76337;BME280;65157;50.082;18.178;2023-11-19T09:34:48;99034.03;;;2.41;84.69
76337;BME280;65157;50.082;18.178;2023-11-19T09:37:14;99039.73;;;2.44;84.71
76337;BME280;65157;50.082;18.178;2023-11-19T09:39:41;99038.11;;;2.48;84.06
76337;BME280;65157;50.082;18.178;2023-11-19T09:42:09;99033.38;;;2.51;84.44
76337;BME280;65157;50.082;18.178;2023-11-19T09:44:40;99029.14;;;2.54;84.37
76337;BME280;65157;50.082;18.178;2023-11-19T09:47:08;99018.70;;;2.55;84.06
76337;BME280;65157;50.082;18.178;2023-11-19T09:49:35;99007.36;;;2.53;83.78
76337;BME280;65157;50.082;18.178;2023-11-19T09:52:05;98996.45;;;2.50;84.07
76337;BME280;65157;50.082;18.178;2023-11-19T09:54:31;98986.96;;;2.44;84.03
76337;BME280;65157;50.082;18.178;2023-11-19T09:56:59;98985.98;;;2.40;84.28
76337;BME280;65157;50.082;18.178;2023-11-19T09:59:29;98978.91;;;2.33;84.47
76337;BME280;65157;50.082;18.178;2023-11-19T10:01:56;98969.10;;;2.25;84.61
76337;BME280;65157;50.082;18.178;2023-11-19T10:04:25;98972.67;;;2.19;84.92
76337;BME280;65157;50.082;18.178;2023-11-19T10:06:54;98964.23;;;2.11;85.02
76337;BME280;65157;50.082;18.178;2023-11-19T10:09:22;98957.91;;;2.02;85.05
76337;BME280;65157;50.082;18.178;2023-11-19T10:11:49;98950.73;;;1.94;85.16
76337;BME280;65157;50.082;18.178;2023-11-19T10:14:16;98942.27;;;1.88;85.33
76337;BME280;65157;50.082;18.178;2023-11-19T10:16:44;98938.31;;;1.83;85.48
76337;BME280;65157;50.082;18.178;2023-11-19T10:19:18;98950.34;;;1.81;85.43
76337;BME280;65157;50.082;18.178;2023-11-19T10:21:45;98947.10;;;1.77;85.74
76337;BME280;65157;50.082;18.178;2023-11-19T10:24:12;98935.36;;;1.69;85.81
76337;BME280;65157;50.082;18.178;2023-11-19T10:26:40;98956.58;;;1.70;85.87
76337;BME280;65157;50.082;18.178;2023-11-19T10:29:07;98962.15;;;1.68;86.29
76337;BME280;65157;50.082;18.178;2023-11-19T10:31:33;98950.88;;;1.65;86.36
76337;BME280;65157;50.082;18.178;2023-11-19T10:34:00;98950.00;;;1.66;86.44
76337;BME280;65157;50.082;18.178;2023-11-19T10:36:39;98948.09;;;1.67;86.64
76337;BME280;65157;50.082;18.178;2023-11-19T10:39:06;98924.95;;;1.68;86.87
76337;BME280;65157;50.082;18.178;2023-11-19T10:41:33;98905.30;;;1.67;86.85
76337;BME280;65157;50.082;18.178;2023-11-19T10:44:01;98887.90;;;1.65;86.74
76337;BME280;65157;50.082;18.178;2023-11-19T10:49:05;98872.46;;;1.63;87.01
76337;BME280;65157;50.082;18.178;2023-11-19T10:51:32;98872.80;;;1.63;86.95
76337;BME280;65157;50.082;18.178;2023-11-19T10:54:03;98870.73;;;1.62;86.94
76337;BME280;65157;50.082;18.178;2023-11-19T10:56:31;98874.38;;;1.63;87.44
76337;BME280;65157;50.082;18.178;2023-11-19T10:59:01;98864.13;;;1.62;87.34
76337;BME280;65157;50.082;18.178;2023-11-19T11:01:34;98853.33;;;1.63;87.58
76337;BME280;65157;50.082;18.178;2023-11-19T11:04:13;98833.13;;;1.65;87.81
76337;BME280;65157;50.082;18.178;2023-11-19T11:06:41;98828.92;;;1.67;87.96
76337;BME280;65157;50.082;18.178;2023-11-19T11:09:08;98831.14;;;1.70;88.04
76337;BME280;65157;50.082;18.178;2023-11-19T11:11:36;98829.85;;;1.75;88.05
76337;BME280;65157;50.082;18.178;2023-11-19T11:14:03;98827.52;;;1.80;88.30
76337;BME280;65157;50.082;18.178;2023-11-19T11:16:31;98831.10;;;1.86;88.08
76337;BME280;65157;50.082;18.178;2023-11-19T11:19:00;98819.02;;;1.91;88.29
76337;BME280;65157;50.082;18.178;2023-11-19T11:21:27;98808.52;;;1.95;88.24
76337;BME280;65157;50.082;18.178;2023-11-19T11:24:15;98814.01;;;2.00;88.38
76337;BME280;65157;50.082;18.178;2023-11-19T11:27:11;98817.93;;;2.06;88.89
76337;BME280;65157;50.082;18.178;2023-11-19T11:30:20;98819.20;;;2.13;89.12
76337;BME280;65157;50.082;18.178;2023-11-19T11:32:54;98816.84;;;2.20;89.45
76337;BME280;65157;50.082;18.178;2023-11-19T11:35:51;98804.71;;;2.27;89.48
76337;BME280;65157;50.082;18.178;2023-11-19T11:38:22;98797.42;;;2.36;89.40
76337;BME280;65157;50.082;18.178;2023-11-19T11:41:14;98793.27;;;2.44;89.54
76337;BME280;65157;50.082;18.178;2023-11-19T11:43:46;98789.27;;;2.54;89.59
76337;BME280;65157;50.082;18.178;2023-11-19T11:49:03;98791.73;;;2.72;89.95
76337;BME280;65157;50.082;18.178;2023-11-19T11:51:57;98790.88;;;2.80;89.75
76337;BME280;65157;50.082;18.178;2023-11-19T11:54:28;98785.35;;;2.88;89.48
76337;BME280;65157;50.082;18.178;2023-11-19T11:57:02;98792.23;;;2.92;89.02
76337;BME280;65157;50.082;18.178;2023-11-19T12:02:09;98779.02;;;3.00;88.71
76337;BME280;65157;50.082;18.178;2023-11-19T12:04:36;98774.96;;;3.02;88.54
76337;BME280;65157;50.082;18.178;2023-11-19T12:07:13;98773.00;;;3.05;88.43
76337;BME280;65157;50.082;18.178;2023-11-19T12:09:41;98771.55;;;3.06;88.36
76337;BME280;65157;50.082;18.178;2023-11-19T12:12:28;98760.55;;;3.07;88.46
76337;BME280;65157;50.082;18.178;2023-11-19T12:20:04;98757.47;;;3.14;88.41
76337;BME280;65157;50.082;18.178;2023-11-19T12:22:32;98757.44;;;3.15;88.85
76337;BME280;65157;50.082;18.178;2023-11-19T12:24:58;98744.34;;;3.16;88.99
76337;BME280;65157;50.082;18.178;2023-11-19T12:27:25;98738.54;;;3.19;89.01
76337;BME280;65157;50.082;18.178;2023-11-19T12:29:54;98740.58;;;3.21;88.91
76337;BME280;65157;50.082;18.178;2023-11-19T12:32:21;98738.77;;;3.24;89.21
76337;BME280;65157;50.082;18.178;2023-11-19T12:34:50;98743.92;;;3.27;89.28
76337;BME280;65157;50.082;18.178;2023-11-19T12:37:16;98745.40;;;3.32;89.20
76337;BME280;65157;50.082;18.178;2023-11-19T12:39:43;98741.29;;;3.36;89.29
76337;BME280;65157;50.082;18.178;2023-11-19T12:42:10;98739.99;;;3.40;88.44
76337;BME280;65157;50.082;18.178;2023-11-19T12:44:36;98737.98;;;3.44;88.61
76337;BME280;65157;50.082;18.178;2023-11-19T12:47:07;98730.95;;;3.47;88.32
76337;BME280;65157;50.082;18.178;2023-11-19T12:49:33;98728.62;;;3.50;88.26
76337;BME280;65157;50.082;18.178;2023-11-19T12:52:11;98728.35;;;3.54;88.19
76337;BME280;65157;50.082;18.178;2023-11-19T12:54:38;98728.73;;;3.60;87.54
76337;BME280;65157;50.082;18.178;2023-11-19T12:57:06;98714.65;;;3.66;87.39
76337;BME280;65157;50.082;18.178;2023-11-19T12:59:32;98708.77;;;3.70;87.18
76337;BME280;65157;50.082;18.178;2023-11-19T13:02:01;98703.23;;;3.76;87.27
76337;BME280;65157;50.082;18.178;2023-11-19T13:04:29;98699.39;;;3.83;87.49
76337;BME280;65157;50.082;18.178;2023-11-19T13:06:57;98692.27;;;3.88;87.28
76337;BME280;65157;50.082;18.178;2023-11-19T13:09:28;98689.57;;;3.92;86.61
76337;BME280;65157;50.082;18.178;2023-11-19T13:11:55;98685.29;;;3.96;86.46
76337;BME280;65157;50.082;18.178;2023-11-19T13:14:23;98683.66;;;3.98;85.84